Time;durP1;ratioP1;P1;durP2;ratioP2;P2;SDS_P1;SDS_P2;PMS_P1;PMS_P2;Temp;Humidity;BMP_temperature;BMP_pressure;BME280_temperature;BME280_humidity;BME280_pressure;Samples;Min_cycle;Max_cycle;Signal;HPM_P1;HPM_P2
2020/12/07 00:01:20;;;;;;;;;;;;;;;3.11;84.16;93391.34;5033321;28;19999;-70
2020/12/07 00:03:45;;;;;;;;;;;;;;;3.44;83.36;93406.88;5033252;28;19952;-69
2020/12/07 00:06:16;;;;;;;;;;;;;;;3.62;82.56;93392.72;5033422;28;19923;-70
2020/12/07 00:08:41;;;;;;;;;;;;;;;3.51;81.11;93385.41;5033126;28;19979;-70
2020/12/07 00:11:08;;;;;;;;;;;;;;;3.21;82.31;93400.84;5033342;28;20359;-70
2020/12/07 00:13:34;;;;;;;;;;;;;;;3.05;82.63;93400.44;5033180;28;20363;-70
2020/12/07 00:15:59;;;;;;;;;;;;;;;2.69;83.98;93389.19;5033207;28;20012;-70
2020/12/07 00:18:24;;;;;;;;;;;;;;;2.24;85.87;93383.84;5015225;28;19937;-70
2020/12/07 00:20:50;;;;;;;;;;;;;;;2.68;85.46;93388.44;5033114;28;19917;-69
2020/12/07 00:23:15;;;;;;;;;;;;;;;2.94;83.86;93409.63;5032753;28;19920;-70
2020/12/07 00:25:40;;;;;;;;;;;;;;;3.44;83.33;93419.22;5015334;28;20362;-71
2020/12/07 00:28:06;;;;;;;;;;;;;;;3.75;82.70;93422.63;5033036;28;20375;-70
2020/12/07 00:30:31;;;;;;;;;;;;;;;4.03;82.39;93409.28;5032784;28;19921;-70
2020/12/07 00:32:56;;;;;;;;;;;;;;;3.76;79.51;93402.38;5032253;28;19925;-70
2020/12/07 00:35:21;;;;;;;;;;;;;;;3.55;80.89;93415.28;5032923;28;20052;-70
2020/12/07 00:37:47;;;;;;;;;;;;;;;3.87;80.47;93428.09;5032763;28;19918;-70
2020/12/07 00:40:12;;;;;;;;;;;;;;;4.07;80.25;93428.63;5032438;28;19921;-70
2020/12/07 00:42:37;;;;;;;;;;;;;;;4.25;79.89;93434.72;5032617;28;20024;-70
2020/12/07 00:45:02;;;;;;;;;;;;;;;4.49;79.71;93437.72;5032751;28;19924;-73
2020/12/07 00:47:27;;;;;;;;;;;;;;;4.68;79.27;93432.97;5032532;28;19928;-71
2020/12/07 00:49:53;;;;;;;;;;;;;;;4.82;78.75;93426.78;5014629;28;19917;-70
2020/12/07 00:52:18;;;;;;;;;;;;;;;4.93;78.64;93441.97;5032250;28;19917;-71
2020/12/07 00:54:43;;;;;;;;;;;;;;;5.01;77.72;93448.31;5032588;28;19917;-70
2020/12/07 00:57:08;;;;;;;;;;;;;;;5.10;77.66;93449.09;5032733;28;20275;-70
2020/12/07 00:59:34;;;;;;;;;;;;;;;5.10;76.97;93457.00;5031620;28;19975;-70
2020/12/07 01:01:59;;;;;;;;;;;;;;;4.98;75.65;93445.53;5031770;28;19917;-71
2020/12/07 01:04:24;;;;;;;;;;;;;;;4.74;75.74;93440.72;5032421;28;19933;-70
2020/12/07 01:06:50;;;;;;;;;;;;;;;4.28;76.31;93434.88;5032340;28;20134;-70
2020/12/07 01:09:15;;;;;;;;;;;;;;;3.34;80.55;93428.13;5032047;28;19986;-70
2020/12/07 01:11:44;;;;;;;;;;;;;;;3.24;81.08;93425.75;5032048;28;19917;-70
2020/12/07 01:14:13;;;;;;;;;;;;;;;3.06;82.31;93423.00;5014651;28;19924;-70
2020/12/07 01:16:39;;;;;;;;;;;;;;;3.10;83.07;93426.59;5032367;28;20302;-70
2020/12/07 01:19:04;;;;;;;;;;;;;;;3.55;81.31;93442.34;5032130;28;19924;-70
2020/12/07 01:21:31;;;;;;;;;;;;;;;3.05;81.61;93455.59;5031987;28;19971;-70
2020/12/07 01:23:56;;;;;;;;;;;;;;;2.96;82.57;93462.63;5032258;28;19947;-70
2020/12/07 01:26:22;;;;;;;;;;;;;;;3.64;81.73;93466.81;5014289;28;19917;-70
2020/12/07 01:28:48;;;;;;;;;;;;;;;3.49;81.06;93472.44;5014162;28;19939;-70
2020/12/07 01:31:13;;;;;;;;;;;;;;;3.58;80.57;93468.03;5031747;28;19913;-70
2020/12/07 01:33:38;;;;;;;;;;;;;;;4.02;80.04;93481.38;5031490;28;19917;-71
2020/12/07 01:36:03;;;;;;;;;;;;;;;4.33;79.80;93489.25;5031980;28;19917;-70
2020/12/07 01:38:28;;;;;;;;;;;;;;;4.42;78.73;93480.31;5031717;28;19913;-70
2020/12/07 01:40:54;;;;;;;;;;;;;;;4.62;78.31;93478.97;5031874;28;19922;-70
2020/12/07 01:43:19;;;;;;;;;;;;;;;4.62;76.68;93468.44;5031604;28;19960;-70
2020/12/07 01:45:45;;;;;;;;;;;;;;;4.70;76.76;93475.56;5014052;28;20557;-70
2020/12/07 01:48:10;;;;;;;;;;;;;;;4.06;77.25;93467.34;5031773;28;19917;-70
2020/12/07 01:50:36;;;;;;;;;;;;;;;3.50;80.18;93471.38;5031532;28;19924;-70
2020/12/07 01:53:01;;;;;;;;;;;;;;;3.41;81.21;93459.25;5031545;28;19951;-69
2020/12/07 01:55:27;;;;;;;;;;;;;;;3.01;83.34;93457.25;5031871;28;20307;-70
2020/12/07 01:57:52;;;;;;;;;;;;;;;3.30;81.96;93469.22;5031748;28;19917;-69
2020/12/07 02:00:17;;;;;;;;;;;;;;;3.20;82.13;93485.22;5031440;28;19932;-71
2020/12/07 02:02:43;;;;;;;;;;;;;;;3.28;82.13;93479.28;5031014;28;19918;-69
2020/12/07 02:05:08;;;;;;;;;;;;;;;2.51;85.06;93473.03;5031736;28;19944;-70
2020/12/07 02:07:33;;;;;;;;;;;;;;;2.66;85.25;93484.28;5031605;28;19918;-70
2020/12/07 02:09:58;;;;;;;;;;;;;;;3.11;84.32;93491.19;5032600;28;20367;-69
2020/12/07 02:12:24;;;;;;;;;;;;;;;3.16;83.23;93502.66;5035266;28;19924;-70
2020/12/07 02:14:49;;;;;;;;;;;;;;;2.62;84.46;93505.13;5035499;28;19917;-70
2020/12/07 02:17:14;;;;;;;;;;;;;;;2.88;84.61;93521.13;5035570;28;19917;-70
2020/12/07 02:19:39;;;;;;;;;;;;;;;3.05;83.03;93531.78;5035149;28;19917;-70
2020/12/07 02:22:05;;;;;;;;;;;;;;;3.12;82.57;93537.41;5035421;28;19917;-69
2020/12/07 02:24:30;;;;;;;;;;;;;;;3.61;82.11;93548.91;5034877;28;19917;-70
2020/12/07 02:26:55;;;;;;;;;;;;;;;3.48;80.58;93562.91;5017558;28;19917;-70
2020/12/07 02:29:27;;;;;;;;;;;;;;;3.57;80.96;93561.09;5035051;28;19917;-70
2020/12/07 02:31:54;;;;;;;;;;;;;;;3.99;80.15;93561.69;5034568;28;19917;-70
2020/12/07 02:34:20;;;;;;;;;;;;;;;2.97;82.52;93560.56;5034914;28;19917;-70
2020/12/07 02:36:45;;;;;;;;;;;;;;;3.01;82.97;93562.31;5017351;28;19923;-70
2020/12/07 02:39:10;;;;;;;;;;;;;;;3.16;82.54;93560.44;5034870;28;19917;-70
2020/12/07 02:41:35;;;;;;;;;;;;;;;2.93;83.39;93560.41;5034680;28;19968;-70
2020/12/07 02:44:00;;;;;;;;;;;;;;;2.84;83.61;93560.31;5035043;28;19917;-68
2020/12/07 02:46:27;;;;;;;;;;;;;;;2.29;85.51;93543.78;5034788;28;19926;-70
2020/12/07 02:48:53;;;;;;;;;;;;;;;2.59;85.32;93558.97;5016925;28;19960;-69
2020/12/07 02:51:18;;;;;;;;;;;;;;;2.63;84.83;93574.13;5034463;28;19967;-70
2020/12/07 02:53:43;;;;;;;;;;;;;;;2.59;84.34;93579.97;5034811;28;19948;-69
2020/12/07 02:56:08;;;;;;;;;;;;;;;2.79;83.51;93593.78;5034755;28;20019;-68
2020/12/07 02:58:33;;;;;;;;;;;;;;;2.94;83.08;93606.59;5034355;28;19956;-71
2020/12/07 03:00:59;;;;;;;;;;;;;;;2.99;82.05;93603.09;5016848;28;19918;-71
2020/12/07 03:03:24;;;;;;;;;;;;;;;2.88;82.50;93599.13;5033906;28;19917;-69
2020/12/07 03:05:49;;;;;;;;;;;;;;;2.17;84.51;93588.09;5034353;28;19917;-69
2020/12/07 03:08:14;;;;;;;;;;;;;;;1.95;85.64;93588.72;5034398;28;19917;-71
2020/12/07 03:10:39;;;;;;;;;;;;;;;2.28;84.78;93581.59;5034396;28;19917;-71
2020/12/07 03:13:05;;;;;;;;;;;;;;;2.43;84.20;93577.91;5016472;28;20278;-68
2020/12/07 03:15:30;;;;;;;;;;;;;;;2.43;84.23;93591.03;5034786;28;19917;-71
2020/12/07 03:17:55;;;;;;;;;;;;;;;2.78;84.61;93593.00;5034385;28;19975;-70
2020/12/07 03:20:20;;;;;;;;;;;;;;;2.80;83.67;93584.81;5034032;28;19917;-69
2020/12/07 03:22:45;;;;;;;;;;;;;;;2.88;82.86;93592.03;5033156;28;19917;-69
2020/12/07 03:25:11;;;;;;;;;;;;;;;2.23;84.37;93586.94;5034262;28;19918;-68
2020/12/07 03:27:37;;;;;;;;;;;;;;;2.66;84.42;93587.44;5034095;28;20434;-69
2020/12/07 03:30:03;;;;;;;;;;;;;;;2.60;83.83;93589.38;5033810;28;19917;-69
2020/12/07 03:32:29;;;;;;;;;;;;;;;2.53;83.71;93603.97;5033270;28;19921;-69
2020/12/07 03:34:55;;;;;;;;;;;;;;;2.65;84.13;93609.50;5034118;28;19961;-71
2020/12/07 03:37:20;;;;;;;;;;;;;;;2.87;83.78;93614.09;5033938;28;20331;-69
2020/12/07 03:39:45;;;;;;;;;;;;;;;2.79;83.13;93618.19;5033723;28;19924;-69
2020/12/07 03:42:10;;;;;;;;;;;;;;;2.71;83.14;93615.44;5033626;28;19968;-70
2020/12/07 03:44:35;;;;;;;;;;;;;;;2.60;83.49;93627.97;5033794;28;19924;-69
2020/12/07 03:47:01;;;;;;;;;;;;;;;2.51;83.71;93621.88;5032725;28;19921;-69
2020/12/07 03:49:26;;;;;;;;;;;;;;;2.69;83.07;93631.50;5032654;28;19917;-69
2020/12/07 03:51:51;;;;;;;;;;;;;;;2.79;83.47;93633.16;5033517;28;19920;-69
2020/12/07 03:54:16;;;;;;;;;;;;;;;2.50;83.33;93639.44;5015836;28;20016;-69
2020/12/07 03:56:42;;;;;;;;;;;;;;;2.37;84.65;93634.97;5033580;28;19917;-69
2020/12/07 03:59:07;;;;;;;;;;;;;;;2.26;85.12;93644.06;5033298;28;19928;-69
2020/12/07 04:01:32;;;;;;;;;;;;;;;2.41;84.17;93645.66;5032944;28;19917;-70
2020/12/07 04:04:04;;;;;;;;;;;;;;;2.57;83.69;93645.09;5033232;28;19952;-69
2020/12/07 04:06:34;;;;;;;;;;;;;;;2.55;83.07;93646.44;5033334;28;20004;-72
2020/12/07 04:08:59;;;;;;;;;;;;;;;2.54;82.46;93658.03;5033071;28;19921;-69
2020/12/07 04:11:24;;;;;;;;;;;;;;;2.57;82.06;93645.09;5033104;28;19923;-69
2020/12/07 04:13:49;;;;;;;;;;;;;;;2.56;82.97;93654.06;5033315;28;19944;-69
2020/12/07 04:16:15;;;;;;;;;;;;;;;2.55;82.66;93643.81;5033245;28;19921;-68
2020/12/07 04:18:40;;;;;;;;;;;;;;;2.40;82.73;93639.63;5015069;28;19917;-69
2020/12/07 04:21:05;;;;;;;;;;;;;;;2.36;83.11;93628.16;5033030;28;19987;-69
2020/12/07 04:23:31;;;;;;;;;;;;;;;2.09;83.03;93624.38;5032913;28;19924;-69
2020/12/07 04:25:57;;;;;;;;;;;;;;;1.91;84.98;93627.84;5033038;28;19917;-69
2020/12/07 04:28:22;;;;;;;;;;;;;;;2.10;85.52;93630.44;5032887;28;19917;-69
2020/12/07 04:30:49;;;;;;;;;;;;;;;2.13;85.41;93635.09;5032404;28;20634;-71
2020/12/07 04:33:15;;;;;;;;;;;;;;;2.41;85.35;93635.16;5031970;28;19921;-71
2020/12/07 04:35:40;;;;;;;;;;;;;;;2.29;84.54;93636.38;5032899;28;19917;-70
2020/12/07 04:38:05;;;;;;;;;;;;;;;2.28;84.13;93642.72;5032831;28;19924;-69
2020/12/07 04:40:30;;;;;;;;;;;;;;;2.30;83.82;93640.59;5032408;28;19921;-70
2020/12/07 04:42:56;;;;;;;;;;;;;;;1.98;83.99;93643.97;5032620;28;19923;-69
2020/12/07 04:45:21;;;;;;;;;;;;;;;2.01;84.67;93658.38;5014841;28;19917;-69
2020/12/07 04:47:49;;;;;;;;;;;;;;;1.89;85.45;93653.56;5032623;28;19917;-69
2020/12/07 04:50:14;;;;;;;;;;;;;;;2.22;84.71;93648.34;5032314;28;19917;-71
2020/12/07 04:52:39;;;;;;;;;;;;;;;2.03;85.23;93648.38;5032340;28;19917;-68
2020/12/07 04:55:05;;;;;;;;;;;;;;;1.93;85.61;93646.69;5032631;28;19917;-69
2020/12/07 04:57:31;;;;;;;;;;;;;;;2.24;85.35;93656.69;5014659;28;19928;-69
2020/12/07 04:59:57;;;;;;;;;;;;;;;2.58;84.03;93653.75;5032274;28;20374;-71
2020/12/07 05:02:23;;;;;;;;;;;;;;;2.68;83.29;93658.06;5031675;28;20004;-69
2020/12/07 05:04:48;;;;;;;;;;;;;;;2.82;81.77;93670.13;5032404;28;20014;-70
2020/12/07 05:07:14;;;;;;;;;;;;;;;2.80;81.11;93682.75;5032275;28;19963;-70
2020/12/07 05:09:39;;;;;;;;;;;;;;;2.75;81.38;93687.31;5032028;28;20010;-69
2020/12/07 05:12:23;;;;;;;;;;;;;;;2.80;81.85;93695.09;5032028;28;20032;-69
2020/12/07 05:14:49;;;;;;;;;;;;;;;2.95;82.11;93702.72;5032183;28;19921;-69
2020/12/07 05:17:14;;;;;;;;;;;;;;;3.11;82.05;93716.34;5032161;28;19924;-69
2020/12/07 05:19:40;;;;;;;;;;;;;;;3.05;81.21;93701.75;5031966;28;19917;-69
2020/12/07 05:22:12;;;;;;;;;;;;;;;3.08;81.48;93704.56;5031855;28;19971;-68
2020/12/07 05:24:37;;;;;;;;;;;;;;;2.66;81.74;93710.03;5032521;28;19918;-65
2020/12/07 05:27:03;;;;;;;;;;;;;;;2.89;81.58;93710.97;5032027;28;20012;-67
2020/12/07 05:29:41;;;;;;;;;;;;;;;2.84;81.94;93709.22;5031586;28;20381;-68
2020/12/07 05:32:06;;;;;;;;;;;;;;;2.99;81.54;93713.41;5031186;28;19913;-68
2020/12/07 05:34:31;;;;;;;;;;;;;;;2.85;80.54;93722.03;5031916;28;19944;-67
2020/12/07 05:36:56;;;;;;;;;;;;;;;2.71;81.20;93725.72;5032003;28;19913;-66
2020/12/07 05:39:24;;;;;;;;;;;;;;;3.17;80.85;93725.66;5031654;28;19917;-67
2020/12/07 05:41:50;;;;;;;;;;;;;;;3.39;80.73;93723.16;5031502;28;20561;-69
2020/12/07 05:44:16;;;;;;;;;;;;;;;3.36;79.61;93722.94;5031824;28;19939;-68
2020/12/07 05:46:45;;;;;;;;;;;;;;;3.36;78.91;93723.72;5035911;28;20525;-66
2020/12/07 05:49:10;;;;;;;;;;;;;;;3.47;79.03;93728.78;5035789;28;19924;-67
2020/12/07 05:51:37;;;;;;;;;;;;;;;3.54;78.80;93724.72;5035534;28;20456;-68
2020/12/07 05:54:02;;;;;;;;;;;;;;;3.49;78.68;93727.44;5035911;28;19917;-68
2020/12/07 05:56:30;;;;;;;;;;;;;;;3.70;78.62;93722.53;5035835;28;19917;-69
2020/12/07 05:58:56;;;;;;;;;;;;;;;3.83;78.47;93715.69;5035460;28;19917;-70
2020/12/07 06:01:25;;;;;;;;;;;;;;;3.86;77.97;93709.84;5035387;28;20338;-68
2020/12/07 06:03:51;;;;;;;;;;;;;;;3.45;76.94;93721.19;5017569;28;19924;-68
2020/12/07 06:06:22;;;;;;;;;;;;;;;3.14;79.23;93726.28;5035476;28;19917;-68
2020/12/07 06:08:47;;;;;;;;;;;;;;;2.88;79.76;93717.31;5017495;28;19923;-68
2020/12/07 06:11:13;;;;;;;;;;;;;;;3.13;79.17;93720.25;5035321;28;20011;-68
2020/12/07 06:13:38;;;;;;;;;;;;;;;3.18;79.54;93723.84;5035505;28;20008;-68
2020/12/07 06:16:05;;;;;;;;;;;;;;;3.39;79.76;93725.00;5035382;28;20449;-69
2020/12/07 06:18:34;;;;;;;;;;;;;;;3.52;79.64;93726.84;5035063;28;19924;-70
2020/12/07 06:21:04;;;;;;;;;;;;;;;3.64;79.11;93721.88;5035103;28;19917;-70
2020/12/07 06:23:36;;;;;;;;;;;;;;;3.73;78.85;93723.78;5035023;28;19925;-68
2020/12/07 06:26:03;;;;;;;;;;;;;;;3.81;78.49;93733.63;5035058;28;20382;-69
2020/12/07 06:28:32;;;;;;;;;;;;;;;3.84;78.29;93730.41;5034846;28;19921;-70
2020/12/07 06:31:08;;;;;;;;;;;;;;;3.87;78.19;93737.69;5035190;28;19961;-70
2020/12/07 06:33:47;;;;;;;;;;;;;;;3.94;78.05;93743.31;5034493;28;19940;-67
2020/12/07 06:36:29;;;;;;;;;;;;;;;3.97;77.69;93748.00;5034917;28;19927;-68
2020/12/07 06:38:56;;;;;;;;;;;;;;;3.95;77.40;93763.31;5034862;28;19917;-70
2020/12/07 06:41:39;;;;;;;;;;;;;;;3.92;77.68;93762.03;5034487;28;19927;-70
2020/12/07 06:44:06;;;;;;;;;;;;;;;3.89;76.94;93767.13;5034676;28;19921;-69
2020/12/07 06:46:54;;;;;;;;;;;;;;;3.88;77.17;93765.56;5034728;28;20316;-67
2020/12/07 06:49:30;;;;;;;;;;;;;;;3.81;76.90;93773.84;5034497;28;19917;-68
2020/12/07 06:52:02;;;;;;;;;;;;;;;3.72;77.01;93774.81;5034508;28;19921;-69
2020/12/07 06:57:26;;;;;;;;;;;;;;;3.48;76.99;93788.97;5033746;28;19947;-79
2020/12/07 07:00:00;;;;;;;;;;;;;;;3.34;77.28;93783.69;5036143;28;20382;-76
2020/12/07 07:02:25;;;;;;;;;;;;;;;3.22;77.56;93796.53;5035136;28;19927;-80
2020/12/07 07:04:54;;;;;;;;;;;;;;;3.11;76.89;93801.19;5016751;28;19917;-72
2020/12/07 07:07:23;;;;;;;;;;;;;;;3.02;77.51;93805.56;5034222;28;20294;-69
2020/12/07 07:09:49;;;;;;;;;;;;;;;2.99;77.67;93813.22;5034107;28;19921;-69
2020/12/07 07:12:14;;;;;;;;;;;;;;;2.94;78.01;93808.84;5016285;28;19917;-71
2020/12/07 07:14:41;;;;;;;;;;;;;;;2.92;77.92;93812.81;5035373;28;20375;-69
2020/12/07 07:17:06;;;;;;;;;;;;;;;2.90;78.10;93815.72;5034318;28;19918;-70
2020/12/07 07:19:31;;;;;;;;;;;;;;;2.85;78.37;93803.47;5033965;28;20433;-72
2020/12/07 07:21:57;;;;;;;;;;;;;;;2.82;78.40;93804.03;5033845;28;19921;-69
2020/12/07 07:24:24;;;;;;;;;;;;;;;2.81;77.87;93806.94;5015976;28;20015;-75
2020/12/07 07:26:50;;;;;;;;;;;;;;;2.78;77.98;93808.31;5034166;28;20429;-72
2020/12/07 07:29:15;;;;;;;;;;;;;;;2.77;78.56;93808.59;5034381;28;19917;-73
2020/12/07 07:31:41;;;;;;;;;;;;;;;2.77;78.08;93814.63;5034360;28;20529;-75
2020/12/07 07:34:08;;;;;;;;;;;;;;;2.78;78.11;93815.41;5034362;28;19918;-75
2020/12/07 07:36:33;;;;;;;;;;;;;;;2.79;78.84;93822.22;5016746;28;19917;-72
2020/12/07 07:38:59;;;;;;;;;;;;;;;2.80;78.88;93819.28;5034150;28;19939;-71
2020/12/07 07:41:25;;;;;;;;;;;;;;;2.81;78.45;93818.22;5033672;28;19925;-70
2020/12/07 07:43:51;;;;;;;;;;;;;;;2.82;78.29;93824.28;5034092;28;19913;-70
2020/12/07 07:46:17;;;;;;;;;;;;;;;2.85;78.81;93821.06;5033962;28;19917;-79
2020/12/07 07:48:54;;;;;;;;;;;;;;;2.88;78.79;93823.13;5033703;28;19917;-69
2020/12/07 08:16:20;;;;;;;;;;;;;;;3.19;78.70;93822.63;5033424;28;20321;-74
2020/12/07 08:18:46;;;;;;;;;;;;;;;3.25;78.40;93830.13;5015518;28;20259;-75
2020/12/07 08:21:11;;;;;;;;;;;;;;;3.30;78.43;93830.03;5033107;28;19940;-76
2020/12/07 08:23:38;;;;;;;;;;;;;;;3.33;78.41;93839.19;5015384;28;19944;-75
2020/12/07 08:26:04;;;;;;;;;;;;;;;3.39;78.50;93841.44;5015291;28;20013;-75
2020/12/07 08:28:37;;;;;;;;;;;;;;;3.45;77.84;93836.09;5015098;28;19967;-74
2020/12/07 08:31:13;;;;;;;;;;;;;;;3.50;78.03;93825.47;5015125;28;20298;-73
2020/12/07 08:33:54;;;;;;;;;;;;;;;3.54;78.27;93824.59;5014856;28;19921;-73
2020/12/07 08:36:19;;;;;;;;;;;;;;;3.58;78.06;93838.75;5015126;28;19921;-74
2020/12/07 08:38:45;;;;;;;;;;;;;;;3.62;78.36;93850.22;5032610;28;20023;-74
2020/12/07 08:41:14;;;;;;;;;;;;;;;3.67;78.07;93853.81;5014487;28;20333;-76
2020/12/07 08:43:42;;;;;;;;;;;;;;;3.76;78.81;93857.34;5032902;28;19917;-75
2020/12/07 08:46:08;;;;;;;;;;;;;;;3.82;77.97;93864.06;5015327;28;20295;-77
2020/12/07 08:48:34;;;;;;;;;;;;;;;3.86;78.26;93862.41;5015083;28;19922;-77
2020/12/07 08:50:59;;;;;;;;;;;;;;;3.86;78.07;93868.44;5014997;28;19955;-77
2020/12/07 08:53:24;;;;;;;;;;;;;;;3.96;78.03;93872.72;5015010;28;19923;-76
2020/12/07 08:55:50;;;;;;;;;;;;;;;4.03;77.76;93875.75;5014822;28;19943;-75
2020/12/07 08:58:16;;;;;;;;;;;;;;;4.07;77.70;93889.09;5014793;28;19917;-78
2020/12/07 09:00:41;;;;;;;;;;;;;;;4.12;77.58;93881.09;5032755;28;19918;-77
2020/12/07 09:03:06;;;;;;;;;;;;;;;4.17;77.79;93887.03;5014551;28;19921;-76
2020/12/07 09:05:32;;;;;;;;;;;;;;;4.24;77.22;93888.50;5015055;28;19948;-76
2020/12/07 09:07:57;;;;;;;;;;;;;;;4.29;76.95;93888.38;5032812;28;19917;-76
2020/12/07 09:10:22;;;;;;;;;;;;;;;4.34;76.96;93878.53;5032395;28;20290;-76
2020/12/07 09:12:47;;;;;;;;;;;;;;;4.42;76.95;93872.56;5014658;28;19917;-76
2020/12/07 09:15:13;;;;;;;;;;;;;;;4.48;76.66;93873.25;5032677;28;19922;-76
2020/12/07 09:17:38;;;;;;;;;;;;;;;4.53;76.41;93873.13;5014653;28;19943;-75
2020/12/07 09:20:03;;;;;;;;;;;;;;;4.51;76.51;93871.91;5031257;28;19917;-76
2020/12/07 09:22:29;;;;;;;;;;;;;;;4.62;76.48;93875.84;5014333;28;19921;-77
2020/12/07 09:24:54;;;;;;;;;;;;;;;4.63;76.37;93875.56;5014443;28;20373;-74
2020/12/07 09:27:19;;;;;;;;;;;;;;;4.65;75.61;93878.66;5014651;28;20386;-76
2020/12/07 09:29:44;;;;;;;;;;;;;;;4.70;75.03;93885.66;5014221;28;19999;-76
2020/12/07 09:32:10;;;;;;;;;;;;;;;4.82;74.80;93893.06;5013974;28;20000;-77
2020/12/07 09:34:36;;;;;;;;;;;;;;;4.87;74.75;93891.09;5032219;28;20012;-77
2020/12/07 09:37:01;;;;;;;;;;;;;;;4.93;74.63;93894.41;5032218;28;19917;-76
2020/12/07 09:39:27;;;;;;;;;;;;;;;4.98;73.80;93875.06;5014157;28;19917;-77
2020/12/07 09:41:52;;;;;;;;;;;;;;;5.04;73.92;93879.13;5031979;28;19979;-77
2020/12/07 09:44:17;;;;;;;;;;;;;;;5.06;72.75;93876.97;5032110;28;19917;-76
2020/12/07 09:46:42;;;;;;;;;;;;;;;4.93;72.42;93884.63;5014322;28;19918;-77
2020/12/07 09:49:08;;;;;;;;;;;;;;;5.16;71.99;93876.72;5014046;28;19921;-75
2020/12/07 09:51:34;;;;;;;;;;;;;;;4.20;71.74;93885.69;5014067;28;19917;-77
2020/12/07 09:53:59;;;;;;;;;;;;;;;4.62;70.95;93881.91;5032081;28;20367;-77
2020/12/07 09:56:28;;;;;;;;;;;;;;;5.30;70.80;93876.66;5014509;28;19964;-78
2020/12/07 09:58:54;;;;;;;;;;;;;;;5.71;70.84;93873.78;5031812;28;19917;-77
2020/12/07 10:01:19;;;;;;;;;;;;;;;5.99;69.83;93877.81;5013977;28;19924;-76
2020/12/07 10:03:44;;;;;;;;;;;;;;;6.24;69.34;93868.41;5014058;28;19924;-76
2020/12/07 10:06:09;;;;;;;;;;;;;;;6.53;68.59;93880.25;5014301;28;19925;-78
2020/12/07 10:08:34;;;;;;;;;;;;;;;6.81;67.53;93878.13;5013917;28;20023;-77
2020/12/07 10:11:00;;;;;;;;;;;;;;;7.06;67.05;93865.19;5014009;28;19917;-77
2020/12/07 10:13:25;;;;;;;;;;;;;;;7.33;66.77;93858.81;5013888;28;19967;-76
2020/12/07 10:15:51;;;;;;;;;;;;;;;7.55;65.11;93867.31;5014043;28;20567;-76
2020/12/07 10:18:16;;;;;;;;;;;;;;;7.75;63.83;93865.84;5013768;28;19917;-76
2020/12/07 10:20:41;;;;;;;;;;;;;;;7.90;63.70;93864.56;5031827;28;19917;-74
2020/12/07 10:23:06;;;;;;;;;;;;;;;7.62;60.41;93868.69;5013924;28;19963;-75
2020/12/07 10:25:31;;;;;;;;;;;;;;;6.98;60.81;93869.41;5031745;28;19921;-76
2020/12/07 10:27:57;;;;;;;;;;;;;;;6.83;62.35;93873.31;5031579;28;19975;-74
2020/12/07 10:30:22;;;;;;;;;;;;;;;7.13;61.95;93865.53;5031509;28;20330;-75
2020/12/07 10:32:47;;;;;;;;;;;;;;;7.63;63.27;93863.09;5016882;28;20678;-75
2020/12/07 10:35:12;;;;;;;;;;;;;;;8.00;62.16;93868.72;5017370;28;19917;-75
2020/12/07 10:37:37;;;;;;;;;;;;;;;8.39;61.98;93861.53;5017448;28;19921;-75
2020/12/07 10:40:03;;;;;;;;;;;;;;;8.75;60.93;93856.50;5016864;28;20420;-75
2020/12/07 10:42:28;;;;;;;;;;;;;;;8.95;59.25;93844.31;5034938;28;19984;-75
2020/12/07 10:44:53;;;;;;;;;;;;;;;9.05;58.45;93848.44;5035099;28;20341;-76
2020/12/07 10:47:18;;;;;;;;;;;;;;;9.07;57.71;93851.56;5034953;28;19921;-74
2020/12/07 10:49:43;;;;;;;;;;;;;;;9.09;57.84;93862.59;5034512;28;19965;-75
2020/12/07 10:52:09;;;;;;;;;;;;;;;9.11;57.61;93853.25;5016752;28;20354;-75
2020/12/07 10:54:34;;;;;;;;;;;;;;;9.23;57.98;93844.53;5034776;28;20268;-75
2020/12/07 10:56:59;;;;;;;;;;;;;;;9.36;57.02;93832.84;5034677;28;20389;-74
2020/12/07 10:59:24;;;;;;;;;;;;;;;9.45;56.61;93832.78;5016829;28;19967;-76
2020/12/07 11:01:53;;;;;;;;;;;;;;;9.54;55.84;93836.13;5034106;28;19917;-75
2020/12/07 11:04:18;;;;;;;;;;;;;;;9.73;55.07;93830.31;5034497;28;19917;-75
2020/12/07 11:06:46;;;;;;;;;;;;;;;9.83;54.58;93831.75;5034562;28;19916;-74
2020/12/07 11:09:12;;;;;;;;;;;;;;;9.93;54.41;93830.53;5016386;28;19965;-74
2020/12/07 11:11:38;;;;;;;;;;;;;;;9.99;53.75;93840.63;5034115;28;19917;-74
2020/12/07 11:14:03;;;;;;;;;;;;;;;10.08;53.46;93838.63;5016620;28;19924;-78
2020/12/07 11:16:29;;;;;;;;;;;;;;;10.18;54.01;93837.38;5016645;28;19928;-74
2020/12/07 11:18:54;;;;;;;;;;;;;;;10.21;53.34;93846.59;5016684;28;20044;-73
2020/12/07 11:21:20;;;;;;;;;;;;;;;10.29;53.76;93854.50;5034092;28;20004;-76
2020/12/07 11:23:47;;;;;;;;;;;;;;;10.35;52.83;93860.34;5034389;28;19956;-76
2020/12/07 11:26:13;;;;;;;;;;;;;;;10.46;52.25;93858.03;5016501;28;19919;-75
2020/12/07 11:28:38;;;;;;;;;;;;;;;10.60;52.07;93861.13;5016409;28;20401;-77
2020/12/07 11:31:05;;;;;;;;;;;;;;;10.62;53.31;93862.31;5016428;28;20007;-74
2020/12/07 11:33:31;;;;;;;;;;;;;;;10.71;52.46;93864.09;5015916;28;19917;-76
2020/12/07 11:35:56;;;;;;;;;;;;;;;10.77;52.00;93866.19;5034263;28;19976;-75
2020/12/07 11:38:23;;;;;;;;;;;;;;;10.68;52.45;93863.63;5033828;28;20264;-75
2020/12/07 11:45:48;;;;;;;;;;;;;;;10.32;52.77;93858.34;5033949;28;20375;-73
2020/12/07 11:48:15;;;;;;;;;;;;;;;10.32;52.97;93851.16;5033538;28;20281;-73
2020/12/07 11:50:40;;;;;;;;;;;;;;;10.27;52.14;93854.03;5015358;28;19921;-70
2020/12/07 11:53:05;;;;;;;;;;;;;;;10.18;52.28;93861.31;5033538;28;19924;-70
2020/12/07 11:55:30;;;;;;;;;;;;;;;10.12;50.94;93860.75;5033757;28;20004;-71
2020/12/07 11:57:56;;;;;;;;;;;;;;;10.26;50.59;93855.16;5033943;28;19923;-72
2020/12/07 12:00:21;;;;;;;;;;;;;;;10.46;49.90;93858.03;5033543;28;20031;-79
2020/12/07 12:02:47;;;;;;;;;;;;;;;10.63;50.09;93847.91;5015002;28;19921;-73
2020/12/07 12:05:12;;;;;;;;;;;;;;;10.84;49.39;93837.09;5033667;28;19917;-74
2020/12/07 12:07:37;;;;;;;;;;;;;;;10.79;49.76;93833.91;5033635;28;19921;-72
2020/12/07 12:10:03;;;;;;;;;;;;;;;11.00;49.22;93831.84;5033326;28;19963;-75
2020/12/07 12:12:28;;;;;;;;;;;;;;;11.02;48.93;93816.34;5033423;28;19921;-71
2020/12/07 12:14:53;;;;;;;;;;;;;;;11.02;48.39;93810.25;5033734;28;19917;-74
2020/12/07 12:17:18;;;;;;;;;;;;;;;11.12;47.92;93807.09;5033999;28;19928;-77
2020/12/07 12:19:44;;;;;;;;;;;;;;;11.27;47.89;93798.38;5033064;28;20375;-72
2020/12/07 12:22:09;;;;;;;;;;;;;;;11.21;49.06;93794.44;5033241;28;20436;-69
2020/12/07 12:24:34;;;;;;;;;;;;;;;11.12;48.29;93815.84;5032695;28;19921;-70
2020/12/07 12:26:59;;;;;;;;;;;;;;;10.78;49.45;93809.19;5033204;28;20392;-70
2020/12/07 12:29:24;;;;;;;;;;;;;;;10.39;49.38;93811.53;5033132;28;20354;-71
2020/12/07 12:31:50;;;;;;;;;;;;;;;10.34;49.67;93808.31;5032635;28;19917;-72
2020/12/07 12:34:15;;;;;;;;;;;;;;;10.04;48.92;93813.84;5015256;28;19924;-71
2020/12/07 12:36:42;;;;;;;;;;;;;;;9.70;48.95;93820.31;5032913;28;19924;-71
2020/12/07 12:39:08;;;;;;;;;;;;;;;9.68;50.07;93811.16;5014987;28;20260;-71
2020/12/07 12:41:33;;;;;;;;;;;;;;;9.44;50.64;93812.66;5032382;28;19928;-70
2020/12/07 12:43:58;;;;;;;;;;;;;;;9.50;50.74;93818.53;5032818;28;20326;-70
2020/12/07 12:46:23;;;;;;;;;;;;;;;9.46;51.71;93829.00;5032548;28;19917;-71
2020/12/07 12:48:49;;;;;;;;;;;;;;;9.52;52.06;93822.41;5014582;28;19932;-70
2020/12/07 12:51:14;;;;;;;;;;;;;;;9.43;51.16;93823.59;5032210;28;20395;-71
2020/12/07 12:53:39;;;;;;;;;;;;;;;9.45;51.88;93826.69;5032225;28;20311;-69
2020/12/07 12:56:08;;;;;;;;;;;;;;;9.43;51.85;93818.28;5032019;28;19917;-73
2020/12/07 12:58:33;;;;;;;;;;;;;;;9.32;51.01;93815.28;5014546;28;19928;-73
2020/12/07 13:00:58;;;;;;;;;;;;;;;9.35;51.59;93820.69;5032254;28;19921;-72
2020/12/07 13:03:24;;;;;;;;;;;;;;;9.32;52.03;93812.63;5031438;28;20027;-72
2020/12/07 13:05:49;;;;;;;;;;;;;;;9.18;51.71;93812.91;5032224;28;19917;-72
2020/12/07 13:08:14;;;;;;;;;;;;;;;8.95;52.08;93822.31;5031907;28;19917;-72
2020/12/07 13:10:39;;;;;;;;;;;;;;;8.51;53.22;93813.94;5032093;28;19917;-71
2020/12/07 13:13:05;;;;;;;;;;;;;;;8.48;53.63;93823.28;5031955;28;19963;-72
2020/12/07 13:15:31;;;;;;;;;;;;;;;8.49;53.16;93827.50;5032299;28;19949;-73
2020/12/07 13:18:00;;;;;;;;;;;;;;;8.55;53.74;93828.88;5014684;28;19917;-71
2020/12/07 13:20:32;;;;;;;;;;;;;;;8.56;53.38;93833.06;5031868;28;19917;-74
2020/12/07 13:25:38;;;;;;;;;;;;;;;8.49;53.45;93832.78;5032030;28;19943;-73